createdAt,value
2023-05-10T00:01:22.199Z,3.25
2023-05-10T00:03:50.282Z,2.33
2023-05-10T00:06:18.332Z,2.65
2023-05-10T00:08:47.698Z,4.18
2023-05-10T00:11:15.670Z,2.53
2023-05-10T00:13:43.660Z,4.03
2023-05-10T00:16:13.101Z,2.80
2023-05-10T00:18:41.195Z,2.60
2023-05-10T00:21:09.153Z,3.03
2023-05-10T00:23:37.020Z,3.00
2023-05-10T00:26:06.384Z,3.42
2023-05-10T00:28:34.269Z,3.50
2023-05-10T00:31:02.098Z,3.47
2023-05-10T00:33:31.608Z,3.25
2023-05-10T00:35:59.471Z,3.40
2023-05-10T00:38:27.380Z,3.58
2023-05-10T00:40:55.320Z,4.22
2023-05-10T00:43:30.977Z,4.38
2023-05-10T00:45:59.509Z,4.32
2023-05-10T00:48:27.974Z,4.85
2023-05-10T00:50:55.907Z,5.80
2023-05-10T00:53:24.009Z,4.50
2023-05-10T00:55:52.131Z,5.10
2023-05-10T00:58:20.678Z,5.38
2023-05-10T01:00:50.680Z,6.00
2023-05-10T01:03:19.409Z,5.80
2023-05-10T01:05:47.558Z,7.07
2023-05-10T01:08:15.765Z,5.97
2023-05-10T01:10:44.737Z,6.65
2023-05-10T01:13:13.602Z,6.30
2023-05-10T01:15:42.810Z,5.85
2023-05-10T01:18:12.374Z,6.53
2023-05-10T01:20:48.044Z,6.28
2023-05-10T01:23:39.708Z,8.70
2023-05-10T01:26:26.757Z,10.50
2023-05-10T01:29:16.230Z,8.00
2023-05-10T01:32:22.392Z,7.57
2023-05-10T01:35:01.816Z,8.13
2023-05-10T01:37:43.999Z,8.60
2023-05-10T01:40:20.444Z,8.85
2023-05-10T01:42:52.460Z,8.75
2023-05-10T01:45:27.648Z,7.88
2023-05-10T01:48:04.325Z,9.38
2023-05-10T01:50:34.944Z,11.48
2023-05-10T01:53:04.363Z,10.57
2023-05-10T01:55:35.675Z,11.30
2023-05-10T01:58:07.749Z,10.80
2023-05-10T02:00:37.229Z,11.48
2023-05-10T02:03:12.447Z,10.20
2023-05-10T02:05:42.358Z,11.82
2023-05-10T02:08:11.462Z,10.95
2023-05-10T02:10:41.398Z,11.48
2023-05-10T02:13:12.094Z,9.25
2023-05-10T02:15:41.545Z,10.43
2023-05-10T02:18:13.283Z,10.43
2023-05-10T02:20:41.615Z,11.73
2023-05-10T02:23:11.891Z,10.32
2023-05-10T02:25:40.750Z,10.05
2023-05-10T02:28:10.121Z,9.73
2023-05-10T02:30:38.832Z,9.55
2023-05-10T02:33:08.387Z,7.65
2023-05-10T02:35:40.034Z,8.68
2023-05-10T02:38:09.645Z,8.00
2023-05-10T02:40:38.889Z,8.32
2023-05-10T02:43:08.359Z,7.05
2023-05-10T02:45:39.861Z,8.98
2023-05-10T02:48:08.631Z,7.78
2023-05-10T02:50:39.346Z,6.45
2023-05-10T02:53:12.827Z,6.68
2023-05-10T02:55:43.070Z,6.82
2023-05-10T02:58:11.173Z,6.40
2023-05-10T03:00:39.100Z,6.07
2023-05-10T03:03:07.816Z,4.78
2023-05-10T03:05:37.179Z,3.78
2023-05-10T03:08:07.211Z,3.38
2023-05-10T03:10:43.605Z,3.38
2023-05-10T03:13:19.175Z,4.00
2023-05-10T03:15:57.657Z,4.15
2023-05-10T03:18:31.459Z,3.25
2023-05-10T03:21:06.910Z,3.42
2023-05-10T03:23:38.523Z,4.18
2023-05-10T03:26:08.007Z,3.55
2023-05-10T03:28:36.763Z,3.65
2023-05-10T03:31:07.899Z,3.70
2023-05-10T03:33:36.283Z,4.72
2023-05-10T03:36:06.438Z,5.07
2023-05-10T03:38:34.448Z,4.63
2023-05-10T03:41:02.982Z,3.53
2023-05-10T03:43:30.907Z,4.55
2023-05-10T03:45:59.227Z,4.07
2023-05-10T03:48:27.178Z,4.63
2023-05-10T03:50:55.097Z,4.47
2023-05-10T03:53:24.815Z,6.05
2023-05-10T03:55:53.183Z,5.18
2023-05-10T03:58:21.328Z,4.95
2023-05-10T04:00:49.332Z,5.43
2023-05-10T04:03:17.434Z,4.18
2023-05-10T04:05:45.594Z,4.07
2023-05-10T04:08:13.700Z,6.15
2023-05-10T04:10:43.041Z,6.07
2023-05-10T04:13:11.006Z,8.68
2023-05-10T04:15:38.984Z,7.60
2023-05-10T04:18:08.872Z,11.60
2023-05-10T04:20:36.968Z,12.07
2023-05-10T04:23:04.939Z,11.75
2023-05-10T04:25:35.873Z,13.40
2023-05-10T04:28:05.655Z,19.35
2023-05-10T04:30:33.671Z,18.70
2023-05-10T04:33:02.910Z,16.42
2023-05-10T04:35:30.936Z,16.58
2023-05-10T04:37:58.820Z,17.85
2023-05-10T04:40:26.798Z,20.10
2023-05-10T04:42:55.200Z,18.40
2023-05-10T04:45:24.513Z,19.83
2023-05-10T04:47:52.477Z,19.08
2023-05-10T04:50:20.443Z,19.33
2023-05-10T04:52:48.341Z,16.08
2023-05-10T04:55:16.535Z,17.42
2023-05-10T04:57:44.351Z,19.75
2023-05-10T05:00:13.264Z,18.23
2023-05-10T05:02:44.735Z,17.30
2023-05-10T05:05:12.831Z,16.08
2023-05-10T05:07:40.668Z,19.23
2023-05-10T05:10:11.070Z,17.85
2023-05-10T05:12:39.192Z,19.00
2023-05-10T05:15:09.948Z,18.25
2023-05-10T05:17:37.942Z,21.30
2023-05-10T05:20:09.168Z,19.90
2023-05-10T05:22:37.983Z,20.95
2023-05-10T05:25:07.124Z,20.98
2023-05-10T05:27:35.033Z,22.98
2023-05-10T05:30:03.361Z,20.95
2023-05-10T05:32:31.875Z,23.05
2023-05-10T05:35:00.324Z,25.30
2023-05-10T05:37:29.779Z,27.20
2023-05-10T05:40:07.552Z,26.52
2023-05-10T05:42:35.652Z,28.67
2023-05-10T05:45:06.383Z,28.65
2023-05-10T05:47:34.267Z,28.77
2023-05-10T05:50:02.161Z,28.90
2023-05-10T05:52:32.595Z,31.13
2023-05-10T05:55:01.261Z,31.00
2023-05-10T05:57:29.172Z,33.53
2023-05-10T05:59:57.101Z,35.83
2023-05-10T06:02:25.019Z,35.28
2023-05-10T06:04:53.043Z,31.42
2023-05-10T06:07:21.294Z,32.63
2023-05-10T06:09:50.637Z,35.25
2023-05-10T06:12:18.582Z,35.78
2023-05-10T06:14:46.494Z,39.28
2023-05-10T06:17:14.380Z,35.70
2023-05-10T06:19:42.337Z,38.10
2023-05-10T06:22:10.272Z,35.65
2023-05-10T06:24:38.116Z,33.50
2023-05-10T06:27:08.258Z,33.67
2023-05-10T06:29:36.324Z,33.53
2023-05-10T06:32:04.275Z,33.95
2023-05-10T06:34:32.545Z,32.47
2023-05-10T06:37:00.598Z,37.92
2023-05-10T06:39:28.480Z,35.63
2023-05-10T06:41:56.481Z,35.30
2023-05-10T06:44:25.768Z,38.83
2023-05-10T06:46:54.724Z,32.40
2023-05-10T06:49:22.706Z,35.03
2023-05-10T06:51:50.558Z,34.17
2023-05-10T06:54:18.690Z,35.20
2023-05-10T06:56:47.044Z,38.35
2023-05-10T06:59:16.310Z,35.88
2023-05-10T07:01:45.595Z,33.00
2023-05-10T07:04:14.019Z,36.83
2023-05-10T07:06:41.994Z,37.15
2023-05-10T07:09:09.984Z,36.40
2023-05-10T07:11:38.509Z,37.97
2023-05-10T07:14:06.404Z,38.30
2023-05-10T07:16:34.354Z,37.10
2023-05-10T07:19:03.779Z,33.80
2023-05-10T07:21:32.277Z,35.42
2023-05-10T07:24:01.200Z,35.45
2023-05-10T07:26:29.453Z,38.97
2023-05-10T07:28:58.425Z,35.13
2023-05-10T07:31:26.280Z,35.03
2023-05-10T07:33:54.274Z,34.33
2023-05-10T07:36:23.522Z,31.48
2023-05-10T07:38:51.560Z,31.15
2023-05-10T07:41:19.483Z,31.77
2023-05-10T07:43:47.340Z,32.20
2023-05-10T07:46:15.329Z,27.98
2023-05-10T07:48:43.340Z,27.75
2023-05-10T07:51:11.696Z,29.40
2023-05-10T07:53:41.049Z,25.17
2023-05-10T07:56:23.779Z,24.05
2023-05-10T07:58:51.869Z,24.38
2023-05-10T08:01:20.134Z,22.52
2023-05-10T08:03:48.212Z,22.60
2023-05-10T08:06:16.977Z,20.42
2023-05-10T08:08:50.298Z,21.30
2023-05-10T08:11:18.623Z,19.42
2023-05-10T08:13:46.721Z,18.27
2023-05-10T08:16:15.093Z,22.35
2023-05-10T08:18:43.088Z,21.98
2023-05-10T08:21:12.269Z,24.15
2023-05-10T08:23:40.290Z,23.98
2023-05-10T08:26:09.547Z,23.67
2023-05-10T08:28:37.490Z,21.52
2023-05-10T08:31:07.060Z,21.92
2023-05-10T08:33:35.210Z,24.80
2023-05-10T08:36:03.440Z,22.45
2023-05-10T08:38:31.773Z,23.65
2023-05-10T08:41:01.730Z,25.13
2023-05-10T08:43:32.263Z,21.92
2023-05-10T08:46:02.641Z,25.33
2023-05-10T08:48:31.823Z,24.15
2023-05-10T08:51:03.043Z,25.48
2023-05-10T08:53:33.113Z,27.58
2023-05-10T08:56:01.273Z,20.40
2023-05-10T08:58:30.646Z,19.30
2023-05-10T09:00:59.351Z,15.48
2023-05-10T09:03:27.524Z,14.88
2023-05-10T09:05:56.810Z,14.05
2023-05-10T09:08:26.829Z,14.93
2023-05-10T09:10:55.350Z,14.63
2023-05-10T09:13:25.250Z,12.85
2023-05-10T09:15:55.284Z,11.40
2023-05-10T09:18:23.264Z,14.10
2023-05-10T09:20:51.520Z,13.52
2023-05-10T09:23:19.393Z,16.15
2023-05-10T09:25:47.482Z,18.00
2023-05-10T09:28:15.427Z,17.55
2023-05-10T09:30:44.021Z,18.55
2023-05-10T09:33:13.291Z,20.85
2023-05-10T09:35:41.525Z,18.25
2023-05-10T09:38:09.688Z,21.10
2023-05-10T09:40:37.657Z,19.67
2023-05-10T09:43:09.400Z,17.13
2023-05-10T09:45:39.130Z,18.33
2023-05-10T09:48:07.771Z,18.38
2023-05-10T09:50:37.666Z,17.67
2023-05-10T09:53:05.796Z,20.02
2023-05-10T09:55:42.150Z,19.40
2023-05-10T09:58:11.910Z,19.30
2023-05-10T10:00:41.321Z,20.50
2023-05-10T10:03:15.060Z,17.80
2023-05-10T10:05:45.903Z,18.08
2023-05-10T10:08:14.681Z,13.77
2023-05-10T10:10:46.189Z,12.05
2023-05-10T10:13:14.730Z,12.43
2023-05-10T10:15:44.205Z,12.52
2023-05-10T10:18:15.801Z,11.70
2023-05-10T10:20:45.358Z,10.68
2023-05-10T10:23:14.188Z,10.85
2023-05-10T10:25:45.422Z,9.18
2023-05-10T10:28:26.154Z,8.32
2023-05-10T10:30:58.414Z,9.90
2023-05-10T10:33:53.232Z,8.55
2023-05-10T10:36:22.691Z,10.30
2023-05-10T10:39:05.085Z,8.50
2023-05-10T10:41:35.054Z,9.43
2023-05-10T10:44:25.583Z,8.20
2023-05-10T10:47:09.587Z,6.63
2023-05-10T10:49:45.276Z,7.13
2023-05-10T10:52:30.179Z,8.15
2023-05-10T10:55:03.862Z,9.93
2023-05-10T10:57:35.437Z,9.63
2023-05-10T11:00:38.018Z,12.57
2023-05-10T11:03:08.407Z,9.07
2023-05-10T11:05:41.963Z,8.45
2023-05-10T11:08:19.723Z,8.98
2023-05-10T11:11:08.017Z,11.95
2023-05-10T11:13:39.914Z,11.25
2023-05-10T11:16:16.822Z,19.63
2023-05-10T11:18:55.981Z,16.23
2023-05-10T11:21:24.346Z,16.25
2023-05-10T11:23:57.314Z,18.75
2023-05-10T11:26:27.050Z,17.35
2023-05-10T11:28:57.318Z,14.88
2023-05-10T11:31:27.618Z,14.75
2023-05-10T11:33:57.486Z,15.13
2023-05-10T11:36:27.344Z,12.93
2023-05-10T11:38:57.643Z,14.57
2023-05-10T11:41:27.028Z,13.63
2023-05-10T11:43:56.506Z,13.00
2023-05-10T11:46:26.258Z,12.85
2023-05-10T11:48:56.102Z,12.90
2023-05-10T11:51:25.928Z,13.98
2023-05-10T11:53:57.474Z,12.88
2023-05-10T11:56:27.202Z,12.35
2023-05-10T11:58:56.444Z,14.48
2023-05-10T12:01:24.905Z,11.50
2023-05-10T12:03:54.842Z,12.82
2023-05-10T12:06:23.563Z,12.75
2023-05-10T12:08:53.500Z,14.90
2023-05-10T12:11:27.259Z,13.20
2023-05-10T12:13:56.256Z,13.98
2023-05-10T12:16:26.246Z,13.15
2023-05-10T12:18:57.733Z,14.45
2023-05-10T12:21:26.116Z,14.93
2023-05-10T12:23:56.585Z,13.02
2023-05-10T12:26:27.427Z,13.88
2023-05-10T12:28:55.616Z,12.15
2023-05-10T12:31:23.602Z,13.43
2023-05-10T12:33:51.557Z,12.20
2023-05-10T12:36:26.352Z,13.02
2023-05-10T12:39:05.809Z,11.43
2023-05-10T12:41:35.248Z,11.55
2023-05-10T12:44:03.749Z,11.40
2023-05-10T12:46:32.225Z,9.80
2023-05-10T12:49:08.377Z,10.77
2023-05-10T12:51:37.236Z,10.50
2023-05-10T12:54:05.351Z,10.15
2023-05-10T12:56:33.379Z,11.75
2023-05-10T12:59:02.724Z,10.80
2023-05-10T13:01:30.781Z,13.15
2023-05-10T13:03:58.712Z,12.07
2023-05-10T13:06:26.723Z,10.95
2023-05-10T13:08:54.686Z,10.82
2023-05-10T13:11:22.625Z,13.73
2023-05-10T13:13:50.579Z,9.32
2023-05-10T13:16:19.800Z,9.20
2023-05-10T13:18:47.754Z,7.90
2023-05-10T13:21:15.827Z,8.90
2023-05-10T13:23:43.771Z,7.82
2023-05-10T13:26:11.742Z,8.75
2023-05-10T13:28:39.828Z,8.13
2023-05-10T13:31:07.776Z,9.05
2023-05-10T13:33:37.060Z,10.32
2023-05-10T13:36:05.460Z,8.02
2023-05-10T13:38:33.545Z,8.07
2023-05-10T13:41:01.468Z,9.02
2023-05-10T13:43:29.409Z,8.63
2023-05-10T13:45:57.458Z,8.40
2023-05-10T13:48:25.321Z,9.00
2023-05-10T13:50:54.582Z,8.38
2023-05-10T13:53:22.707Z,8.50
2023-05-10T13:55:51.096Z,9.63
2023-05-10T13:58:19.098Z,8.25
2023-05-10T14:00:47.000Z,9.13
2023-05-10T14:03:14.989Z,9.93
2023-05-10T14:05:42.980Z,9.30
2023-05-10T14:08:14.106Z,9.20
2023-05-10T14:10:42.015Z,9.18
2023-05-10T14:13:09.889Z,9.40
2023-05-10T14:15:37.738Z,11.35
2023-05-10T14:18:05.692Z,10.00
2023-05-10T14:20:34.747Z,10.25
2023-05-10T14:23:02.638Z,9.63
2023-05-10T14:25:31.956Z,8.27
2023-05-10T14:27:59.836Z,9.48
2023-05-10T14:30:27.966Z,7.95
2023-05-10T14:32:56.467Z,6.78
2023-05-10T14:35:24.822Z,7.07
2023-05-10T14:37:52.924Z,7.95
2023-05-10T14:40:21.981Z,7.32
2023-05-10T14:42:53.856Z,6.53
2023-05-10T14:45:22.555Z,6.50
2023-05-10T14:47:51.113Z,6.82
2023-05-10T14:50:32.316Z,7.38
2023-05-10T14:53:03.214Z,6.80
2023-05-10T14:55:31.086Z,6.30
2023-05-10T14:58:00.424Z,6.22
2023-05-10T15:00:29.985Z,6.15
2023-05-10T15:02:58.461Z,9.38
2023-05-10T15:05:27.209Z,6.00
2023-05-10T15:07:55.837Z,5.57
2023-05-10T15:10:23.808Z,6.00
2023-05-10T15:12:52.490Z,4.20
2023-05-10T15:15:21.841Z,5.43
2023-05-10T15:17:49.883Z,4.15
2023-05-10T15:20:18.108Z,4.75
2023-05-10T15:22:46.025Z,3.55
2023-05-10T15:25:14.196Z,3.53
2023-05-10T15:27:44.461Z,3.55
2023-05-10T15:30:13.249Z,3.42
2023-05-10T15:32:43.761Z,3.17
2023-05-10T15:35:12.196Z,2.92
2023-05-10T15:37:40.313Z,2.70
2023-05-10T15:40:10.188Z,2.85
2023-05-10T15:42:38.065Z,2.65
2023-05-10T15:45:07.067Z,3.70
2023-05-10T15:47:35.158Z,2.58
2023-05-10T15:50:04.730Z,4.72
2023-05-10T15:52:32.639Z,2.58
2023-05-10T15:55:00.414Z,3.13
2023-05-10T15:57:28.184Z,2.80
2023-05-10T15:59:56.344Z,4.03
2023-05-10T16:02:24.313Z,3.92
2023-05-10T16:04:52.741Z,4.25
2023-05-10T16:07:23.932Z,4.72
2023-05-10T16:09:51.750Z,4.10
2023-05-10T16:12:19.961Z,4.32
2023-05-10T16:14:48.068Z,4.97
2023-05-10T16:17:16.341Z,4.82
2023-05-10T16:19:44.513Z,4.47
2023-05-10T16:22:12.441Z,3.97
2023-05-10T16:24:42.415Z,5.18
2023-05-10T16:27:10.311Z,5.45
2023-05-10T16:29:38.248Z,3.95
2023-05-10T16:32:06.474Z,4.05
2023-05-10T16:34:34.390Z,4.82
2023-05-10T16:37:02.387Z,4.03
2023-05-10T16:39:30.296Z,4.35
2023-05-10T16:41:59.632Z,4.38
2023-05-10T16:44:27.466Z,5.78
2023-05-10T16:46:56.008Z,5.55
2023-05-10T16:49:26.206Z,4.50
2023-05-10T16:51:54.412Z,6.32
2023-05-10T16:54:22.832Z,6.65
2023-05-10T16:56:50.765Z,5.57
2023-05-10T16:59:20.102Z,6.60
2023-05-10T17:01:48.227Z,6.13
2023-05-10T17:04:17.796Z,5.43
2023-05-10T17:06:45.762Z,6.13
2023-05-10T17:09:13.859Z,5.60
2023-05-10T17:11:43.091Z,7.60
2023-05-10T17:14:11.169Z,7.32
2023-05-10T17:16:40.614Z,6.60
2023-05-10T17:19:09.559Z,6.40
2023-05-10T17:21:37.633Z,7.75
2023-05-10T17:24:05.907Z,7.68
2023-05-10T17:26:34.627Z,7.70
2023-05-10T17:29:02.623Z,7.22
2023-05-10T17:31:31.101Z,6.97
2023-05-10T17:34:00.379Z,6.43
2023-05-10T17:36:28.515Z,8.35
2023-05-10T17:38:56.472Z,8.27
2023-05-10T17:41:24.529Z,8.48
2023-05-10T17:43:52.491Z,7.78
2023-05-10T17:46:20.530Z,7.57
2023-05-10T17:48:48.656Z,8.65
2023-05-10T17:51:17.964Z,9.48
2023-05-10T17:53:45.876Z,9.43
2023-05-10T17:56:13.892Z,10.60
2023-05-10T17:58:42.091Z,9.30
2023-05-10T18:01:10.084Z,9.10
2023-05-10T18:03:38.227Z,9.68
2023-05-10T18:06:06.513Z,11.15
2023-05-10T18:08:35.833Z,10.98
2023-05-10T18:11:03.767Z,10.35
2023-05-10T18:13:32.114Z,11.43
2023-05-10T18:16:00.147Z,10.38
2023-05-10T18:18:28.249Z,12.23
2023-05-10T18:20:58.285Z,13.18
2023-05-10T18:23:26.440Z,14.13
2023-05-10T18:25:55.742Z,14.50
2023-05-10T18:28:24.448Z,16.20
2023-05-10T18:30:52.622Z,14.75
2023-05-10T18:33:20.875Z,15.63
2023-05-10T18:35:49.101Z,16.00
2023-05-10T18:38:17.337Z,16.92
2023-05-10T18:40:45.240Z,15.02
2023-05-10T18:43:14.681Z,15.48
2023-05-10T18:45:43.898Z,16.08
2023-05-10T18:48:12.033Z,17.63
2023-05-10T18:50:39.888Z,17.73
2023-05-10T18:53:07.849Z,19.20
2023-05-10T18:55:35.770Z,20.27
2023-05-10T18:58:03.724Z,20.58
2023-05-10T19:00:33.260Z,19.70
2023-05-10T19:03:01.258Z,21.92
2023-05-10T19:05:30.350Z,22.67
2023-05-10T19:07:58.391Z,20.23
2023-05-10T19:10:26.262Z,20.48
2023-05-10T19:12:54.210Z,22.00
2023-05-10T19:15:22.333Z,23.05
2023-05-10T19:17:52.583Z,21.52
2023-05-10T19:20:20.790Z,22.60
2023-05-10T19:22:58.438Z,23.17
2023-05-10T19:25:36.937Z,23.45
2023-05-10T19:28:04.845Z,22.42
2023-05-10T19:30:32.890Z,20.63
2023-05-10T19:33:05.444Z,20.45
2023-05-10T19:35:33.753Z,20.92
2023-05-10T19:38:01.761Z,20.63
2023-05-10T19:40:29.711Z,22.67
2023-05-10T19:42:57.864Z,24.05
2023-05-10T19:45:26.243Z,23.60
2023-05-10T19:47:54.381Z,22.85
2023-05-10T19:50:23.695Z,24.90
2023-05-10T19:52:51.767Z,22.85
2023-05-10T19:55:27.907Z,23.88
2023-05-10T19:57:55.836Z,24.02
2023-05-10T20:00:24.252Z,24.58
2023-05-10T20:02:52.172Z,23.30
2023-05-10T20:05:20.216Z,24.05
2023-05-10T20:07:49.465Z,26.73
2023-05-10T20:10:17.948Z,27.20
2023-05-10T20:12:51.091Z,26.30
2023-05-10T20:15:20.055Z,28.13
2023-05-10T20:17:48.470Z,31.13
2023-05-10T20:20:17.167Z,32.00
2023-05-10T20:22:45.652Z,32.28
2023-05-10T20:25:15.922Z,30.75
2023-05-10T20:27:43.974Z,29.38
2023-05-10T20:30:12.651Z,28.05
2023-05-10T20:32:40.717Z,28.98
2023-05-10T20:35:09.148Z,28.65
2023-05-10T20:37:38.066Z,28.67
2023-05-10T20:40:07.021Z,25.35
2023-05-10T20:42:36.379Z,26.67
2023-05-10T20:45:04.509Z,27.75
2023-05-10T20:47:32.601Z,26.00
2023-05-10T20:50:00.812Z,26.33
2023-05-10T20:52:28.761Z,22.45
2023-05-10T20:54:56.668Z,20.95
2023-05-10T20:57:24.591Z,21.00
2023-05-10T20:59:54.604Z,19.88
2023-05-10T21:02:22.547Z,19.33
2023-05-10T21:04:50.589Z,19.95
2023-05-10T21:07:18.618Z,20.52
2023-05-10T21:09:46.551Z,20.58
2023-05-10T21:12:14.571Z,20.75
2023-05-10T21:14:43.056Z,21.55
2023-05-10T21:17:12.307Z,21.27
2023-05-10T21:19:40.189Z,22.83
2023-05-10T21:22:08.232Z,22.50
2023-05-10T21:24:36.107Z,21.35
2023-05-10T21:27:04.824Z,21.48
2023-05-10T21:29:32.688Z,22.33
2023-05-10T21:32:01.196Z,22.02
2023-05-10T21:34:31.160Z,27.00
2023-05-10T21:36:59.061Z,26.27
2023-05-10T21:39:26.936Z,25.70
2023-05-10T21:41:54.803Z,27.67
2023-05-10T21:44:22.748Z,27.20
2023-05-10T21:46:50.656Z,25.35
2023-05-10T21:49:18.914Z,25.67
2023-05-10T21:51:48.619Z,26.27
2023-05-10T21:54:16.554Z,23.48
2023-05-10T21:56:45.024Z,24.15
2023-05-10T21:59:12.974Z,28.08
2023-05-10T22:01:41.237Z,27.92
2023-05-10T22:04:09.412Z,27.33
2023-05-10T22:06:37.402Z,28.33
2023-05-10T22:09:06.807Z,27.13
2023-05-10T22:11:34.623Z,26.65
2023-05-10T22:14:02.518Z,28.23
2023-05-10T22:16:30.432Z,33.25
2023-05-10T22:18:58.375Z,30.45
2023-05-10T22:21:26.416Z,27.70
2023-05-10T22:23:54.339Z,31.90
2023-05-10T22:26:23.627Z,31.85
2023-05-10T22:28:51.673Z,28.55
2023-05-10T22:31:19.594Z,30.58
2023-05-10T22:33:47.611Z,30.23
2023-05-10T22:36:15.709Z,27.13
2023-05-10T22:38:43.756Z,36.85
2023-05-10T22:41:11.623Z,29.02
2023-05-10T22:43:40.900Z,27.90
2023-05-10T22:46:08.859Z,27.92
2023-05-10T22:48:37.138Z,28.73
2023-05-10T22:51:05.347Z,28.23
2023-05-10T22:53:33.323Z,28.75
2023-05-10T22:56:01.326Z,31.05
2023-05-10T22:58:29.352Z,28.77
2023-05-10T23:00:59.059Z,31.35
2023-05-10T23:03:27.299Z,28.55
2023-05-10T23:05:55.180Z,31.08
2023-05-10T23:08:23.474Z,32.63
2023-05-10T23:10:51.716Z,29.33
2023-05-10T23:13:21.005Z,30.60
2023-05-10T23:15:49.058Z,30.48
2023-05-10T23:18:18.427Z,30.90
2023-05-10T23:20:46.328Z,31.45
2023-05-10T23:23:14.169Z,32.25
2023-05-10T23:25:42.041Z,31.17
2023-05-10T23:28:09.957Z,28.25
2023-05-10T23:30:37.890Z,32.92
2023-05-10T23:33:05.849Z,30.75
2023-05-10T23:35:35.160Z,28.50
2023-05-10T23:38:03.164Z,33.70
2023-05-10T23:40:31.345Z,31.48
2023-05-10T23:42:59.246Z,29.90
2023-05-10T23:45:27.194Z,32.15
2023-05-10T23:47:55.192Z,30.98
2023-05-10T23:50:23.186Z,30.77
2023-05-10T23:52:52.761Z,34.47
2023-05-10T23:55:20.689Z,33.72
2023-05-10T23:57:57.680Z,35.30
